createdAt,value
2023-05-07T00:02:17.643Z,11.30
2023-05-07T00:04:45.181Z,11.30
2023-05-07T00:07:12.078Z,11.30
2023-05-07T00:09:38.808Z,11.30
2023-05-07T00:12:05.761Z,11.30
2023-05-07T00:14:32.727Z,11.30
2023-05-07T00:16:59.690Z,11.30
2023-05-07T00:19:26.635Z,11.20
2023-05-07T00:21:54.983Z,11.20
2023-05-07T00:24:21.964Z,11.20
2023-05-07T00:26:48.759Z,11.10
2023-05-07T00:29:15.574Z,11.20
2023-05-07T00:31:42.598Z,11.20
2023-05-07T00:34:09.507Z,11.10
2023-05-07T00:36:36.744Z,11.10
2023-05-07T00:39:04.719Z,11.10
2023-05-07T00:41:32.014Z,11.10
2023-05-07T00:43:58.872Z,11.00
2023-05-07T00:46:25.974Z,11.00
2023-05-07T00:48:53.233Z,11.00
2023-05-07T00:51:20.100Z,11.00
2023-05-07T00:53:47.609Z,11.00
2023-05-07T00:56:14.580Z,10.90
2023-05-07T00:58:41.828Z,10.90
2023-05-07T01:01:08.707Z,10.90
2023-05-07T01:03:36.296Z,10.90
2023-05-07T01:06:04.469Z,10.90
2023-05-07T01:08:33.268Z,10.90
2023-05-07T01:11:01.323Z,10.80
2023-05-07T01:13:29.328Z,10.80
2023-05-07T01:15:56.123Z,10.80
2023-05-07T01:18:23.217Z,10.80
2023-05-07T01:20:50.255Z,10.80
2023-05-07T01:23:17.202Z,10.80
2023-05-07T01:25:44.029Z,10.80
2023-05-07T01:28:10.866Z,10.80
2023-05-07T01:30:47.757Z,10.80
2023-05-07T01:33:16.637Z,10.80
2023-05-07T01:35:47.762Z,10.90
2023-05-07T01:38:14.837Z,10.80
2023-05-07T01:40:42.248Z,10.80
2023-05-07T01:43:10.559Z,10.80
2023-05-07T01:45:37.707Z,10.80
2023-05-07T01:48:04.847Z,10.80
2023-05-07T01:50:33.237Z,10.80
2023-05-07T01:53:00.317Z,10.70
2023-05-07T01:55:27.231Z,10.60
2023-05-07T01:57:53.991Z,10.60
2023-05-07T02:00:21.151Z,10.60
2023-05-07T02:02:48.025Z,10.50
2023-05-07T02:05:15.119Z,10.50
2023-05-07T02:07:41.866Z,10.50
2023-05-07T02:10:09.180Z,10.50
2023-05-07T02:12:36.279Z,10.50
2023-05-07T02:15:03.545Z,10.50
2023-05-07T02:17:32.831Z,10.50
2023-05-07T02:20:00.747Z,10.50
2023-05-07T02:22:27.537Z,10.50
2023-05-07T02:24:54.312Z,10.50
2023-05-07T02:27:21.200Z,10.50
2023-05-07T02:29:48.185Z,10.50
2023-05-07T02:32:15.009Z,10.50
2023-05-07T02:34:42.284Z,10.50
2023-05-07T02:37:09.169Z,10.50
2023-05-07T02:39:37.773Z,10.50
2023-05-07T02:42:04.643Z,10.50
2023-05-07T02:44:32.512Z,10.50
2023-05-07T02:46:59.289Z,10.50
2023-05-07T02:49:26.080Z,10.50
2023-05-07T02:51:52.848Z,10.50
2023-05-07T02:54:19.749Z,10.40
2023-05-07T02:56:46.495Z,10.50
2023-05-07T02:59:13.262Z,10.40
2023-05-07T03:01:40.194Z,10.40
2023-05-07T03:04:07.174Z,10.40
2023-05-07T03:06:33.958Z,10.30
2023-05-07T03:09:00.848Z,10.30
2023-05-07T03:11:27.648Z,10.30
2023-05-07T03:13:54.527Z,10.30
2023-05-07T03:16:21.866Z,10.20
2023-05-07T03:18:48.708Z,10.20
2023-05-07T03:21:15.751Z,10.10
2023-05-07T03:23:42.602Z,10.10
2023-05-07T03:26:09.375Z,10.10
2023-05-07T03:28:36.231Z,10.10
2023-05-07T03:31:03.427Z,10.00
2023-05-07T03:33:30.221Z,10.00
2023-05-07T03:35:56.974Z,10.00
2023-05-07T03:38:23.724Z,10.00
2023-05-07T03:40:50.608Z,10.00
2023-05-07T03:43:17.534Z,9.90
2023-05-07T03:45:44.259Z,10.00
2023-05-07T03:48:11.094Z,10.00
2023-05-07T03:50:39.125Z,9.90
2023-05-07T03:53:05.973Z,9.90
2023-05-07T03:55:32.969Z,9.90
2023-05-07T03:57:59.704Z,9.90
2023-05-07T04:00:28.934Z,9.90
2023-05-07T04:02:55.765Z,9.90
2023-05-07T04:05:22.592Z,9.90
2023-05-07T04:07:49.402Z,9.80
2023-05-07T04:10:16.292Z,9.80
2023-05-07T04:12:43.103Z,9.80
2023-05-07T04:15:10.325Z,9.80
2023-05-07T04:17:37.157Z,9.80
2023-05-07T04:20:04.662Z,9.80
2023-05-07T06:33:29.841Z,13.30
2023-05-07T06:36:05.794Z,13.40
2023-05-07T06:38:32.544Z,13.70
2023-05-07T06:40:59.474Z,13.80
2023-05-07T06:43:26.290Z,13.90
2023-05-07T06:45:53.094Z,14.00
2023-05-07T06:48:19.860Z,14.10
2023-05-07T06:50:46.714Z,14.20
2023-05-07T06:53:13.617Z,14.30
2023-05-07T06:55:40.359Z,14.30
2023-05-07T06:58:07.249Z,14.40
2023-05-07T07:00:34.284Z,14.50
2023-05-07T07:03:01.618Z,14.50
2023-05-07T07:05:28.546Z,14.70
2023-05-07T07:07:55.282Z,14.90
2023-05-07T07:10:22.747Z,15.10
2023-05-07T07:12:50.769Z,15.30
2023-05-07T07:15:17.795Z,15.40
2023-05-07T07:17:44.588Z,15.50
2023-05-07T07:20:12.167Z,15.70
2023-05-07T07:22:39.231Z,15.90
2023-05-07T07:25:06.357Z,15.90
2023-05-07T07:27:33.214Z,16.00
2023-05-07T07:30:00.036Z,16.10
2023-05-07T07:32:27.315Z,16.20
2023-05-07T07:34:54.183Z,16.20
2023-05-07T07:37:21.228Z,16.30
2023-05-07T07:39:47.984Z,16.40
2023-05-07T07:42:14.873Z,16.50
2023-05-07T07:44:41.734Z,16.60
2023-05-07T07:47:08.672Z,16.80
2023-05-07T07:49:36.471Z,17.00
2023-05-07T07:52:03.402Z,17.10
2023-05-07T07:54:47.474Z,17.20
2023-05-07T08:01:24.449Z,17.40
2023-05-07T08:03:57.304Z,17.50
2023-05-07T08:07:00.997Z,17.60
2023-05-07T08:09:51.939Z,17.80
2023-05-07T08:12:40.968Z,17.90
2023-05-07T08:17:53.712Z,18.20
2023-05-07T08:23:27.331Z,18.30
2023-05-07T08:48:17.521Z,19.60
2023-05-07T09:10:26.001Z,20.50
2023-05-07T09:13:19.350Z,20.90
2023-05-07T09:35:57.126Z,21.20
2023-05-07T09:39:26.469Z,21.40
2023-05-07T09:41:55.561Z,21.70
2023-05-07T09:44:23.007Z,21.70
2023-05-07T09:46:56.546Z,21.50
2023-05-07T09:49:26.271Z,21.50
2023-05-07T09:51:54.305Z,21.40
2023-05-07T09:54:21.351Z,21.30
2023-05-07T09:56:50.125Z,21.30
2023-05-07T09:59:18.100Z,21.40
2023-05-07T10:01:46.244Z,21.60
2023-05-07T10:04:15.198Z,21.70
2023-05-07T10:06:43.638Z,22.10
2023-05-07T10:09:12.142Z,22.30
2023-05-07T10:11:39.205Z,22.20
2023-05-07T10:14:09.165Z,22.30
2023-05-07T10:16:45.057Z,22.40
2023-05-07T10:19:12.150Z,22.30
2023-05-07T10:21:49.842Z,22.50
2023-05-07T10:24:37.964Z,22.60
2023-05-07T10:27:16.607Z,22.80
2023-05-07T10:30:01.281Z,22.70
2023-05-07T10:32:46.771Z,22.80
2023-05-07T10:35:20.176Z,23.20
2023-05-07T10:37:47.920Z,23.10
2023-05-07T10:40:15.149Z,23.50
2023-05-07T10:42:59.058Z,23.60
2023-05-07T10:45:26.386Z,23.90
2023-05-07T10:48:27.287Z,23.90
2023-05-07T10:51:22.737Z,24.10
2023-05-07T10:53:49.741Z,24.10
2023-05-07T10:56:22.425Z,24.20
2023-05-07T10:58:49.397Z,23.80
2023-05-07T11:01:36.317Z,23.70
2023-05-07T11:04:25.474Z,23.90
2023-05-07T11:07:07.969Z,23.80
2023-05-07T11:10:02.116Z,23.70
2023-05-07T11:12:41.907Z,23.90
2023-05-07T11:15:14.386Z,23.80
2023-05-07T11:17:59.118Z,23.80
2023-05-07T11:20:44.671Z,23.70
2023-05-07T11:23:33.345Z,23.80
2023-05-07T11:26:10.922Z,23.80
2023-05-07T11:28:44.763Z,24.00
2023-05-07T11:31:13.317Z,24.00
2023-05-07T11:33:41.005Z,23.90
2023-05-07T11:36:09.520Z,24.20
2023-05-07T11:41:38.269Z,24.10
2023-05-07T11:44:05.270Z,23.90
2023-05-07T11:46:33.197Z,24.10
2023-05-07T11:49:01.896Z,24.20
2023-05-07T11:51:28.797Z,24.50
2023-05-07T11:53:55.602Z,24.70
2023-05-07T11:56:22.462Z,24.70
2023-05-07T11:58:49.545Z,24.50
2023-05-07T12:01:17.490Z,24.10
2023-05-07T12:03:47.364Z,24.10
2023-05-07T12:06:16.599Z,24.00
2023-05-07T12:08:47.079Z,23.80
2023-05-07T12:11:17.306Z,24.00
2023-05-07T12:13:44.452Z,24.00
2023-05-07T12:16:11.975Z,24.10
2023-05-07T12:18:39.404Z,24.00
2023-05-07T12:21:07.747Z,23.60
2023-05-07T12:23:39.251Z,23.30
2023-05-07T12:26:07.432Z,23.40
2023-05-07T12:28:41.892Z,23.50
2023-05-07T12:31:09.038Z,23.70
2023-05-07T12:33:37.054Z,23.70
2023-05-07T12:36:07.746Z,23.70
2023-05-07T12:38:37.927Z,23.30
2023-05-07T12:41:08.265Z,23.30
2023-05-07T12:43:35.739Z,23.30
2023-05-07T12:46:05.672Z,23.50
2023-05-07T12:51:03.592Z,23.30
2023-05-07T12:53:32.270Z,23.30
2023-05-07T12:56:00.852Z,23.50
2023-05-07T12:58:28.271Z,23.40
2023-05-07T13:01:00.438Z,23.30
2023-05-07T13:03:35.603Z,23.40
2023-05-07T13:06:11.152Z,23.40
2023-05-07T13:08:44.456Z,23.60
2023-05-07T13:11:12.608Z,23.70
2023-05-07T13:13:41.527Z,23.90
2023-05-07T13:16:10.570Z,24.00
2023-05-07T13:18:39.034Z,24.30
2023-05-07T13:21:06.129Z,24.30
2023-05-07T13:23:32.899Z,24.50
2023-05-07T13:26:01.119Z,24.70
2023-05-07T13:28:31.254Z,24.20
2023-05-07T13:30:58.196Z,24.10
2023-05-07T13:33:27.035Z,24.10
2023-05-07T13:35:53.964Z,24.00
2023-05-07T13:38:21.629Z,24.20
2023-05-07T13:40:49.889Z,24.20
2023-05-07T13:43:18.532Z,24.00
2023-05-07T13:45:45.552Z,23.80
2023-05-07T13:48:12.419Z,23.60
2023-05-07T13:50:39.152Z,24.00
2023-05-07T13:53:06.034Z,24.10
2023-05-07T13:55:33.353Z,24.20
2023-05-07T13:58:01.736Z,24.20
2023-05-07T14:00:29.777Z,24.00
2023-05-07T14:02:57.505Z,24.10
2023-05-07T14:05:24.465Z,24.20
2023-05-07T14:07:52.964Z,24.20
2023-05-07T14:10:26.055Z,23.90
2023-05-07T14:12:56.159Z,23.80
2023-05-07T14:15:22.984Z,23.80
2023-05-07T14:17:49.935Z,23.40
2023-05-07T14:20:16.802Z,23.40
2023-05-07T14:22:43.621Z,23.60
2023-05-07T14:25:11.389Z,23.80
2023-05-07T14:30:28.230Z,23.80
2023-05-07T14:32:55.247Z,23.70
2023-05-07T14:35:22.065Z,23.80
2023-05-07T14:38:23.318Z,23.50
2023-05-07T14:41:09.258Z,23.30
2023-05-07T14:43:36.715Z,23.20
2023-05-07T14:46:29.186Z,23.00
2023-05-07T14:48:56.096Z,22.70
2023-05-07T14:51:23.101Z,22.40
2023-05-07T14:53:51.246Z,22.40
2023-05-07T14:56:18.464Z,22.50
2023-05-07T14:58:47.629Z,22.70
2023-05-07T15:01:14.857Z,22.70
2023-05-07T15:03:50.762Z,22.80
2023-05-07T15:16:21.595Z,21.80
2023-05-07T15:18:48.461Z,21.80
2023-05-07T15:25:04.175Z,21.60
2023-05-07T15:27:31.770Z,21.40
2023-05-07T15:29:59.023Z,21.50
2023-05-07T15:32:26.248Z,21.40
2023-05-07T15:34:53.021Z,21.40
2023-05-07T15:37:19.796Z,21.30
2023-05-07T15:39:47.050Z,21.30
2023-05-07T15:42:15.806Z,21.30
2023-05-07T15:44:43.101Z,21.10
2023-05-07T15:47:09.936Z,21.10
2023-05-07T15:49:36.687Z,21.20
2023-05-07T15:52:03.946Z,21.10
2023-05-07T15:54:31.112Z,21.10
2023-05-07T15:56:58.010Z,21.10
2023-05-07T15:59:25.143Z,20.90
2023-05-07T16:01:52.650Z,20.90
2023-05-07T16:04:19.594Z,20.70
2023-05-07T16:06:47.593Z,20.60
2023-05-07T16:09:15.050Z,20.50
2023-05-07T16:11:41.912Z,20.50
2023-05-07T16:14:08.754Z,20.50
2023-05-07T16:16:38.167Z,20.40
2023-05-07T16:19:05.764Z,20.20
2023-05-07T16:21:33.204Z,20.30
2023-05-07T16:24:00.045Z,20.30
2023-05-07T16:26:26.855Z,20.20
2023-05-07T16:28:53.740Z,20.10
2023-05-07T16:31:20.600Z,19.90
2023-05-07T16:33:47.404Z,19.90
2023-05-07T16:36:14.586Z,19.90
2023-05-07T16:38:41.401Z,19.70
2023-05-07T16:41:08.250Z,19.60
2023-05-07T16:43:35.014Z,19.50
2023-05-07T16:46:01.920Z,19.60
2023-05-07T16:48:28.723Z,19.50
2023-05-07T16:50:56.007Z,19.50
2023-05-07T16:53:22.756Z,19.40
2023-05-07T16:55:49.509Z,19.40
2023-05-07T16:58:16.427Z,19.40
2023-05-07T17:00:50.450Z,19.30
2023-05-07T17:03:18.484Z,19.30
2023-05-07T17:05:45.647Z,19.30
2023-05-07T17:08:14.186Z,19.20
2023-05-07T17:10:41.821Z,19.20
2023-05-07T17:13:08.677Z,19.10
2023-05-07T17:15:35.540Z,19.10
2023-05-07T17:18:02.382Z,19.00
2023-05-07T17:20:29.382Z,19.00
2023-05-07T17:22:56.138Z,19.00
2023-05-07T17:25:23.640Z,19.00
2023-05-07T17:27:50.667Z,18.90
2023-05-07T17:30:18.034Z,18.80
2023-05-07T17:32:44.902Z,18.80
2023-05-07T17:35:11.797Z,18.70
2023-05-07T17:37:38.769Z,18.70
2023-05-07T17:40:09.205Z,18.60
2023-05-07T17:42:36.015Z,18.60
2023-05-07T17:45:02.838Z,18.60
2023-05-07T17:47:29.627Z,18.50
2023-05-07T17:49:56.364Z,18.40
2023-05-07T17:52:24.150Z,18.40
2023-05-07T17:54:51.035Z,18.40
2023-05-07T17:57:17.814Z,18.30
2023-05-07T17:59:44.585Z,18.30
2023-05-07T18:02:11.448Z,18.10
2023-05-07T18:04:38.245Z,18.10
2023-05-07T18:07:04.987Z,18.10
2023-05-07T18:09:31.775Z,18.00
2023-05-07T18:11:58.641Z,17.90
2023-05-07T18:14:26.283Z,17.90
2023-05-07T18:16:54.205Z,17.90
2023-05-07T18:19:23.850Z,17.80
2023-05-07T18:21:50.646Z,17.80
2023-05-07T18:24:17.463Z,17.70
2023-05-07T18:26:44.259Z,17.70
2023-05-07T18:29:11.125Z,17.70
2023-05-07T18:31:38.288Z,17.70
2023-05-07T18:34:06.331Z,17.60
2023-05-07T18:37:06.591Z,17.60
2023-05-07T18:39:35.005Z,17.50
2023-05-07T18:42:01.789Z,17.50
2023-05-07T18:44:28.576Z,17.50
2023-05-07T18:49:25.977Z,17.40
2023-05-07T18:51:53.291Z,17.30
2023-05-07T18:54:20.125Z,17.30
2023-05-07T18:56:46.905Z,17.30
2023-05-07T18:59:13.750Z,17.30
2023-05-07T19:01:40.608Z,17.20
2023-05-07T19:04:07.480Z,17.20
2023-05-07T19:06:34.293Z,17.20
2023-05-07T19:09:01.264Z,17.20
2023-05-07T19:11:28.034Z,17.10
2023-05-07T19:13:54.824Z,17.10
2023-05-07T19:16:21.661Z,17.10
2023-05-07T19:18:48.688Z,17.00
2023-05-07T19:21:15.585Z,17.00
2023-05-07T19:23:42.362Z,17.00
2023-05-07T19:26:10.411Z,17.00
2023-05-07T19:28:45.500Z,16.90
2023-05-07T19:31:21.299Z,16.80
2023-05-07T19:33:48.670Z,16.80
2023-05-07T19:36:17.322Z,16.80
2023-05-07T19:38:45.184Z,16.70
2023-05-07T19:41:12.488Z,16.70
2023-05-07T19:43:40.106Z,16.60
2023-05-07T19:46:06.956Z,16.60
2023-05-07T19:48:33.773Z,16.60
2023-05-07T19:51:00.717Z,16.50
2023-05-07T19:53:27.708Z,16.50
2023-05-07T19:56:08.712Z,16.50
2023-05-07T19:58:36.436Z,16.50
2023-05-07T20:01:04.501Z,16.50
2023-05-07T20:03:32.796Z,16.50
2023-05-07T20:06:00.270Z,16.50
2023-05-07T20:08:27.757Z,16.50
2023-05-07T20:10:54.638Z,16.40
2023-05-07T20:13:21.434Z,16.40
2023-05-07T20:15:48.279Z,16.40
2023-05-07T20:18:15.999Z,16.30
2023-05-07T20:20:44.586Z,16.20
2023-05-07T20:23:11.469Z,16.20
2023-05-07T20:25:39.916Z,16.20
2023-05-07T20:28:06.694Z,16.10
2023-05-07T20:30:33.483Z,16.10
2023-05-07T20:33:00.342Z,16.00
2023-05-07T20:35:27.153Z,16.00
2023-05-07T20:37:53.935Z,15.90
2023-05-07T20:40:20.916Z,15.90
2023-05-07T20:42:47.772Z,15.80
2023-05-07T20:45:14.579Z,15.70
2023-05-07T20:47:42.104Z,15.70
2023-05-07T20:50:09.296Z,15.60
2023-05-07T20:52:36.417Z,15.60
2023-05-07T20:55:03.457Z,15.50
2023-05-07T20:57:30.352Z,15.50
2023-05-07T20:59:57.396Z,15.40
2023-05-07T21:02:24.178Z,15.40
2023-05-07T21:04:53.933Z,15.30
2023-05-07T21:07:20.732Z,15.30
2023-05-07T21:09:47.481Z,15.30
2023-05-07T21:12:14.255Z,15.20
2023-05-07T21:14:41.058Z,15.20
2023-05-07T21:17:08.208Z,15.10
2023-05-07T21:19:35.201Z,15.10
2023-05-07T21:22:01.977Z,15.10
2023-05-07T21:24:28.762Z,15.00
2023-05-07T21:26:56.168Z,15.00
2023-05-07T21:29:23.639Z,15.00
2023-05-07T21:31:50.497Z,14.90
2023-05-07T21:34:17.346Z,14.90
2023-05-07T21:36:44.357Z,14.80
2023-05-07T21:39:11.184Z,14.80
2023-05-07T21:41:38.049Z,14.80
2023-05-07T21:44:05.556Z,14.80
2023-05-07T21:46:33.193Z,14.70
2023-05-07T21:49:00.052Z,14.70
2023-05-07T21:51:26.822Z,14.70
2023-05-07T21:53:53.594Z,14.70
2023-05-07T21:56:20.430Z,14.70
2023-05-07T21:58:48.535Z,14.70
2023-05-07T22:01:15.356Z,14.60
2023-05-07T22:03:42.257Z,14.60
2023-05-07T22:06:09.155Z,14.60
2023-05-07T22:08:35.858Z,14.60
2023-05-07T22:11:02.599Z,14.60
2023-05-07T22:13:29.510Z,14.50
2023-05-07T22:15:58.477Z,14.50
2023-05-07T22:18:26.642Z,14.50
2023-05-07T22:23:36.462Z,14.40
2023-05-07T22:26:11.519Z,14.50
2023-05-07T22:28:38.701Z,14.50
2023-05-07T22:31:05.927Z,14.50
2023-05-07T22:39:57.324Z,14.50
2023-05-07T22:45:24.106Z,14.50
2023-05-07T22:47:54.445Z,14.40
2023-05-07T22:50:21.856Z,14.40
2023-05-07T22:52:50.092Z,14.40
2023-05-07T22:55:18.768Z,14.40
2023-05-07T22:57:47.503Z,14.30
2023-05-07T23:00:15.330Z,14.30
2023-05-07T23:02:46.823Z,14.20
2023-05-07T23:05:15.795Z,14.20
2023-05-07T23:07:43.869Z,14.20
2023-05-07T23:10:11.306Z,14.10
2023-05-07T23:12:38.432Z,14.10
2023-05-07T23:15:06.585Z,14.10
2023-05-07T23:17:35.559Z,14.00
2023-05-07T23:20:03.113Z,14.00
2023-05-07T23:22:32.632Z,14.00
2023-05-07T23:25:00.664Z,14.00
2023-05-07T23:27:29.742Z,14.00
2023-05-07T23:29:57.418Z,14.00
2023-05-07T23:32:25.507Z,13.90
2023-05-07T23:34:56.923Z,13.90
2023-05-07T23:37:26.596Z,13.90
2023-05-07T23:39:59.382Z,14.00
2023-05-07T23:42:28.679Z,13.90
2023-05-07T23:45:03.865Z,13.90
2023-05-07T23:47:46.329Z,13.90
2023-05-07T23:50:13.724Z,13.90
2023-05-07T23:52:40.740Z,13.90
2023-05-07T23:55:08.487Z,13.90
2023-05-07T23:57:35.255Z,13.90
